sensor_id;sensor_type;location;lat;lon;timestamp;pressure;altitude;pressure_sealevel;temperature;humidity
27864;BME280;15980;51.092;13.916;2023-05-20T00:01:37;99411.66;;;11.13;89.20
27864;BME280;15980;51.092;13.916;2023-05-20T00:11:37;99409.28;;;11.02;90.11
27864;BME280;15980;51.092;13.916;2023-05-20T00:21:38;99412.66;;;11.08;90.18
27864;BME280;15980;51.092;13.916;2023-05-20T00:31:38;99402.28;;;11.14;89.17
27864;BME280;15980;51.092;13.916;2023-05-20T00:41:38;99400.34;;;11.14;89.72
27864;BME280;15980;51.092;13.916;2023-05-20T00:51:39;99393.38;;;11.25;89.82
27864;BME280;15980;51.092;13.916;2023-05-20T01:01:39;99413.59;;;11.29;89.62
27864;BME280;15980;51.092;13.916;2023-05-20T01:12:13;99413.25;;;11.22;90.34
27864;BME280;15980;51.092;13.916;2023-05-20T01:22:15;99412.47;;;11.13;90.97
27864;BME280;15980;51.092;13.916;2023-05-20T01:32:21;99399.09;;;11.03;91.02
27864;BME280;15980;51.092;13.916;2023-05-20T01:42:22;99403.31;;;11.00;90.80
27864;BME280;15980;51.092;13.916;2023-05-20T01:52:23;99404.75;;;10.98;91.37
27864;BME280;15980;51.092;13.916;2023-05-20T02:02:23;99404.09;;;10.84;91.40
27864;BME280;15980;51.092;13.916;2023-05-20T02:12:23;99404.28;;;10.79;92.35
27864;BME280;15980;51.092;13.916;2023-05-20T02:22:24;99406.88;;;10.75;92.95
27864;BME280;15980;51.092;13.916;2023-05-20T02:32:24;99414.13;;;10.80;93.34
27864;BME280;15980;51.092;13.916;2023-05-20T02:42:24;99407.34;;;10.94;93.70
27864;BME280;15980;51.092;13.916;2023-05-20T02:52:25;99397.00;;;11.00;93.56
27864;BME280;15980;51.092;13.916;2023-05-20T03:02:25;99378.22;;;11.11;92.89
27864;BME280;15980;51.092;13.916;2023-05-20T03:12:25;99364.56;;;10.93;94.19
27864;BME280;15980;51.092;13.916;2023-05-20T03:22:25;99357.44;;;10.92;94.73
27864;BME280;15980;51.092;13.916;2023-05-20T03:32:26;99362.25;;;11.04;93.95
27864;BME280;15980;51.092;13.916;2023-05-20T03:42:26;99357.03;;;11.28;93.47
27864;BME280;15980;51.092;13.916;2023-05-20T03:52:26;99379.03;;;11.58;91.66
27864;BME280;15980;51.092;13.916;2023-05-20T04:02:27;99378.97;;;11.75;91.72
27864;BME280;15980;51.092;13.916;2023-05-20T04:12:27;99369.72;;;11.88;90.45
27864;BME280;15980;51.092;13.916;2023-05-20T04:22:28;99366.91;;;11.97;90.26
27864;BME280;15980;51.092;13.916;2023-05-20T04:32:28;99381.69;;;12.13;89.33
27864;BME280;15980;51.092;13.916;2023-05-20T04:42:29;99371.56;;;12.26;89.32
27864;BME280;15980;51.092;13.916;2023-05-20T04:52:29;99393.78;;;12.42;88.60
27864;BME280;15980;51.092;13.916;2023-05-20T05:02:29;99378.94;;;12.55;87.20
27864;BME280;15980;51.092;13.916;2023-05-20T05:12:29;99386.47;;;12.67;87.13
27864;BME280;15980;51.092;13.916;2023-05-20T05:22:30;99394.31;;;12.56;86.97
27864;BME280;15980;51.092;13.916;2023-05-20T05:32:30;99380.75;;;12.72;87.05
27864;BME280;15980;51.092;13.916;2023-05-20T05:42:31;99380.34;;;12.82;85.45
27864;BME280;15980;51.092;13.916;2023-05-20T05:52:31;99367.72;;;13.14;84.81
27864;BME280;15980;51.092;13.916;2023-05-20T06:02:31;99368.97;;;13.16;84.09
27864;BME280;15980;51.092;13.916;2023-05-20T06:12:32;99366.78;;;13.55;82.91
27864;BME280;15980;51.092;13.916;2023-05-20T06:22:32;99362.63;;;13.73;82.18
27864;BME280;15980;51.092;13.916;2023-05-20T06:32:32;99361.94;;;14.65;78.09
27864;BME280;15980;51.092;13.916;2023-05-20T06:42:33;99374.97;;;15.08;75.91
27864;BME280;15980;51.092;13.916;2023-05-20T06:52:33;99362.09;;;15.44;75.24
27864;BME280;15980;51.092;13.916;2023-05-20T07:02:33;99352.50;;;16.20;70.57
27864;BME280;15980;51.092;13.916;2023-05-20T07:12:34;99332.47;;;17.27;67.53
27864;BME280;15980;51.092;13.916;2023-05-20T07:22:34;99319.91;;;16.68;68.92
27864;BME280;15980;51.092;13.916;2023-05-20T07:32:35;99327.69;;;17.01;66.41
27864;BME280;15980;51.092;13.916;2023-05-20T07:42:35;99331.63;;;16.61;68.28
27864;BME280;15980;51.092;13.916;2023-05-20T07:52:36;99339.16;;;17.22;66.22
27864;BME280;15980;51.092;13.916;2023-05-20T08:02:37;99329.56;;;18.15;63.53
27864;BME280;15980;51.092;13.916;2023-05-20T08:12:37;99314.69;;;17.28;66.09
27864;BME280;15980;51.092;13.916;2023-05-20T08:22:38;99303.75;;;16.35;69.09
27864;BME280;15980;51.092;13.916;2023-05-20T08:32:38;99320.66;;;16.88;68.54
27864;BME280;15980;51.092;13.916;2023-05-20T08:42:42;99290.94;;;17.53;64.89
27864;BME280;15980;51.092;13.916;2023-05-20T08:52:44;99285.75;;;17.29;67.33
27864;BME280;15980;51.092;13.916;2023-05-20T09:02:45;99281.66;;;16.39;70.38
27864;BME280;15980;51.092;13.916;2023-05-20T09:12:45;99285.13;;;16.51;71.94
27864;BME280;15980;51.092;13.916;2023-05-20T09:22:46;99298.47;;;17.07;67.68
27864;BME280;15980;51.092;13.916;2023-05-20T09:32:56;99281.34;;;18.00;66.51
27864;BME280;15980;51.092;13.916;2023-05-20T09:43:02;99279.78;;;16.81;68.85
27864;BME280;15980;51.092;13.916;2023-05-20T09:53:03;99261.38;;;17.15;69.74
27864;BME280;15980;51.092;13.916;2023-05-20T10:03:04;99266.06;;;17.11;71.02
27864;BME280;15980;51.092;13.916;2023-05-20T10:33:21;99234.44;;;17.92;68.40
27864;BME280;15980;51.092;13.916;2023-05-20T10:43:25;99235.53;;;18.47;64.39
27864;BME280;15980;51.092;13.916;2023-05-20T10:53:26;99218.56;;;18.59;65.21
27864;BME280;15980;51.092;13.916;2023-05-20T11:03:28;99214.25;;;18.62;63.23
27864;BME280;15980;51.092;13.916;2023-05-20T11:13:29;99210.94;;;18.86;64.23
27864;BME280;15980;51.092;13.916;2023-05-20T11:23:30;99199.75;;;19.23;63.30
27864;BME280;15980;51.092;13.916;2023-05-20T11:33:30;99190.25;;;19.28;63.59
27864;BME280;15980;51.092;13.916;2023-05-20T11:43:32;99169.63;;;19.36;62.51
27864;BME280;15980;51.092;13.916;2023-05-20T11:53:32;99169.25;;;20.06;60.95
27864;BME280;15980;51.092;13.916;2023-05-20T12:03:33;99162.66;;;19.60;62.34
27864;BME280;15980;51.092;13.916;2023-05-20T12:13:33;99154.25;;;20.40;60.01
27864;BME280;15980;51.092;13.916;2023-05-20T12:23:33;99132.66;;;20.12;62.84
27864;BME280;15980;51.092;13.916;2023-05-20T12:33:34;99121.91;;;20.17;61.89
27864;BME280;15980;51.092;13.916;2023-05-20T12:43:34;99110.28;;;19.94;61.89
27864;BME280;15980;51.092;13.916;2023-05-20T12:53:34;99111.34;;;19.54;64.92
27864;BME280;15980;51.092;13.916;2023-05-20T13:03:35;99092.06;;;19.27;65.31
27864;BME280;15980;51.092;13.916;2023-05-20T13:13:35;99112.59;;;19.67;64.69
27864;BME280;15980;51.092;13.916;2023-05-20T13:23:35;99080.13;;;20.28;63.29
27864;BME280;15980;51.092;13.916;2023-05-20T13:33:36;99061.88;;;20.73;60.33
27864;BME280;15980;51.092;13.916;2023-05-20T13:43:36;99066.94;;;21.46;57.73
27864;BME280;15980;51.092;13.916;2023-05-20T13:53:37;99051.50;;;20.91;60.41
27864;BME280;15980;51.092;13.916;2023-05-20T14:03:37;99046.06;;;21.79;56.04
27864;BME280;15980;51.092;13.916;2023-05-20T14:13:37;99028.03;;;21.94;56.71
27864;BME280;15980;51.092;13.916;2023-05-20T14:23:39;99023.16;;;22.12;55.13
27864;BME280;15980;51.092;13.916;2023-05-20T14:33:39;99016.69;;;22.22;54.50
27864;BME280;15980;51.092;13.916;2023-05-20T14:43:39;99008.16;;;22.40;54.49
27864;BME280;15980;51.092;13.916;2023-05-20T14:53:40;99001.47;;;22.27;54.62
27864;BME280;15980;51.092;13.916;2023-05-20T15:03:40;99008.50;;;21.90;54.74
27864;BME280;15980;51.092;13.916;2023-05-20T15:13:40;98991.28;;;22.51;54.58
27864;BME280;15980;51.092;13.916;2023-05-20T15:23:40;98981.47;;;22.77;53.51
27864;BME280;15980;51.092;13.916;2023-05-20T15:33:41;98971.88;;;22.33;53.87
27864;BME280;15980;51.092;13.916;2023-05-20T15:43:41;98966.28;;;22.33;54.19
27864;BME280;15980;51.092;13.916;2023-05-20T15:53:41;98971.69;;;22.06;55.39
27864;BME280;15980;51.092;13.916;2023-05-20T16:03:42;98962.75;;;21.63;55.58
27864;BME280;15980;51.092;13.916;2023-05-20T16:23:42;98954.72;;;20.70;57.73
27864;BME280;15980;51.092;13.916;2023-05-20T16:33:43;98956.78;;;20.42;58.45
27864;BME280;15980;51.092;13.916;2023-05-20T16:43:43;98960.31;;;20.14;60.12
27864;BME280;15980;51.092;13.916;2023-05-20T16:53:43;98938.81;;;20.25;58.87
27864;BME280;15980;51.092;13.916;2023-05-20T17:03:44;98949.16;;;20.67;57.88
27864;BME280;15980;51.092;13.916;2023-05-20T17:13:44;98944.03;;;20.48;59.91
27864;BME280;15980;51.092;13.916;2023-05-20T17:23:45;98955.13;;;20.37;60.88
27864;BME280;15980;51.092;13.916;2023-05-20T17:33:45;98951.94;;;19.85;62.16
27864;BME280;15980;51.092;13.916;2023-05-20T17:43:46;98969.22;;;19.18;63.82
27864;BME280;15980;51.092;13.916;2023-05-20T17:53:46;98978.97;;;18.83;65.09
27864;BME280;15980;51.092;13.916;2023-05-20T18:03:46;98989.50;;;18.60;66.17
27864;BME280;15980;51.092;13.916;2023-05-20T18:13:46;98989.16;;;18.17;67.59
27864;BME280;15980;51.092;13.916;2023-05-20T18:23:47;98991.50;;;17.71;69.65
27864;BME280;15980;51.092;13.916;2023-05-20T18:33:47;99003.84;;;17.40;71.01
27864;BME280;15980;51.092;13.916;2023-05-20T18:43:48;99006.66;;;17.14;72.18
27864;BME280;15980;51.092;13.916;2023-05-20T18:53:48;99010.66;;;16.90;73.33
27864;BME280;15980;51.092;13.916;2023-05-20T19:03:49;99012.16;;;16.57;74.93
27864;BME280;15980;51.092;13.916;2023-05-20T19:13:49;99010.69;;;16.41;76.49
27864;BME280;15980;51.092;13.916;2023-05-20T19:23:49;99019.03;;;16.18;77.91
27864;BME280;15980;51.092;13.916;2023-05-20T19:33:50;99021.78;;;15.95;78.71
27864;BME280;15980;51.092;13.916;2023-05-20T19:43:50;99015.06;;;15.73;79.75
27864;BME280;15980;51.092;13.916;2023-05-20T19:53:50;99024.13;;;15.54;80.61
27864;BME280;15980;51.092;13.916;2023-05-20T20:03:51;99027.50;;;15.44;80.86
27864;BME280;15980;51.092;13.916;2023-05-20T20:13:51;99023.50;;;15.22;81.72
27864;BME280;15980;51.092;13.916;2023-05-20T20:23:51;99014.75;;;15.01;82.72
27864;BME280;15980;51.092;13.916;2023-05-20T20:33:51;99017.56;;;14.85;83.39
27864;BME280;15980;51.092;13.916;2023-05-20T20:43:52;99012.06;;;14.69;84.24
27864;BME280;15980;51.092;13.916;2023-05-20T20:53:52;99013.25;;;14.53;84.67
27864;BME280;15980;51.092;13.916;2023-05-20T21:03:52;99011.28;;;14.37;85.78
27864;BME280;15980;51.092;13.916;2023-05-20T21:13:53;99003.34;;;14.20;86.86
27864;BME280;15980;51.092;13.916;2023-05-20T21:23:54;98999.44;;;14.05;86.99
27864;BME280;15980;51.092;13.916;2023-05-20T21:33:54;98995.19;;;13.92;87.83
27864;BME280;15980;51.092;13.916;2023-05-20T21:43:54;98990.16;;;13.82;88.97
27864;BME280;15980;51.092;13.916;2023-05-20T21:53:54;98986.06;;;13.76;89.40
27864;BME280;15980;51.092;13.916;2023-05-20T22:03:55;98973.25;;;13.68;90.05
27864;BME280;15980;51.092;13.916;2023-05-20T22:13:55;98985.69;;;13.62;90.11
27864;BME280;15980;51.092;13.916;2023-05-20T22:23:55;98973.94;;;13.49;90.29
27864;BME280;15980;51.092;13.916;2023-05-20T22:33:56;98977.19;;;13.39;91.39
27864;BME280;15980;51.092;13.916;2023-05-20T22:43:56;98961.25;;;13.32;91.22
27864;BME280;15980;51.092;13.916;2023-05-20T22:53:56;98964.78;;;13.17;91.54
27864;BME280;15980;51.092;13.916;2023-05-20T23:03:56;98946.22;;;13.02;92.34
27864;BME280;15980;51.092;13.916;2023-05-20T23:13:57;98945.19;;;12.94;93.50
27864;BME280;15980;51.092;13.916;2023-05-20T23:23:57;98944.75;;;12.92;93.04
27864;BME280;15980;51.092;13.916;2023-05-20T23:33:57;98941.69;;;12.81;93.44
27864;BME280;15980;51.092;13.916;2023-05-20T23:43:58;98936.56;;;12.68;92.90
27864;BME280;15980;51.092;13.916;2023-05-20T23:53:58;98934.97;;;12.54;93.38
